sensor_id;sensor_type;location;lat;lon;timestamp;pressure;altitude;pressure_sealevel;temperature;humidity
71057;BME280;58380;48.312;9.246;2023-04-05T05:18:39;93805.88;;;-7.17;92.03
71057;BME280;58380;48.312;9.246;2023-04-05T05:21:06;93718.06;;;-7.83;91.62
71057;BME280;58380;48.312;9.246;2023-04-05T05:23:32;93746.41;;;-7.66;92.22
71057;BME280;58380;48.312;9.246;2023-04-05T05:25:58;93804.16;;;-7.26;92.75
71057;BME280;58380;48.312;9.246;2023-04-05T05:28:25;93772.66;;;-7.37;92.75
71057;BME280;58380;48.312;9.246;2023-04-05T05:30:51;93687.00;;;-7.97;92.80
71057;BME280;58380;48.312;9.246;2023-04-05T05:33:17;93753.31;;;-7.49;92.91
71057;BME280;58380;48.312;9.246;2023-04-05T05:35:42;93804.56;;;-7.21;92.50
71057;BME280;58380;48.312;9.246;2023-04-05T05:38:08;93777.94;;;-7.38;92.55
71057;BME280;58380;48.312;9.246;2023-04-05T05:40:33;93778.63;;;-7.36;92.79
71057;BME280;58380;48.312;9.246;2023-04-05T05:42:59;93712.94;;;-7.65;93.14
71057;BME280;58380;48.312;9.246;2023-04-05T05:45:24;93772.38;;;-7.16;93.69
71057;BME280;58380;48.312;9.246;2023-04-05T05:47:51;93780.94;;;-6.89;93.93
71057;BME280;58380;48.312;9.246;2023-04-05T05:50:16;93753.59;;;-6.80;93.68
71057;BME280;58380;48.312;9.246;2023-04-05T05:52:44;93810.03;;;-6.18;93.19
71057;BME280;58380;48.312;9.246;2023-04-05T05:55:10;93801.09;;;-6.06;93.16
71057;BME280;58380;48.312;9.246;2023-04-05T05:57:35;93748.84;;;-6.15;91.86
71057;BME280;58380;48.312;9.246;2023-04-05T06:00:03;93812.09;;;-5.45;90.65
71057;BME280;58380;48.312;9.246;2023-04-05T06:02:33;93776.66;;;-5.59;89.14
71057;BME280;58380;48.312;9.246;2023-04-05T06:04:59;93780.63;;;-5.31;88.59
71057;BME280;58380;48.312;9.246;2023-04-05T06:07:26;93809.78;;;-4.97;88.19
71057;BME280;58380;48.312;9.246;2023-04-05T06:09:51;93798.38;;;-4.87;87.62
71057;BME280;58380;48.312;9.246;2023-04-05T06:12:20;93808.53;;;-4.52;87.49
71057;BME280;58380;48.312;9.246;2023-04-05T06:14:45;93718.56;;;-4.95;87.09
71057;BME280;58380;48.312;9.246;2023-04-05T06:17:11;93782.28;;;-4.40;86.74
71057;BME280;58380;48.312;9.246;2023-04-05T06:19:36;93777.75;;;-4.21;86.97
71057;BME280;58380;48.312;9.246;2023-04-05T06:22:02;93756.81;;;-4.18;86.91
71057;BME280;58380;48.312;9.246;2023-04-05T06:24:27;93742.28;;;-4.11;87.21
71057;BME280;58380;48.312;9.246;2023-04-05T06:26:56;93763.31;;;-3.83;87.11
71057;BME280;58380;48.312;9.246;2023-04-05T06:29:22;93792.50;;;-3.43;86.67
71057;BME280;58380;48.312;9.246;2023-04-05T06:31:47;93746.16;;;-3.59;85.37
71057;BME280;58380;48.312;9.246;2023-04-05T06:34:13;93795.91;;;-3.11;84.86
71057;BME280;58380;48.312;9.246;2023-04-05T06:36:38;93789.53;;;-3.00;82.47
71057;BME280;58380;48.312;9.246;2023-04-05T06:39:04;93764.41;;;-3.07;81.93
71057;BME280;58380;48.312;9.246;2023-04-05T06:41:29;93735.38;;;-3.09;83.57
71057;BME280;58380;48.312;9.246;2023-04-05T06:43:54;93779.75;;;-2.59;84.72
71057;BME280;58380;48.312;9.246;2023-04-05T06:46:20;93741.38;;;-2.70;82.44
71057;BME280;58380;48.312;9.246;2023-04-05T06:48:46;93805.78;;;-2.08;81.14
71057;BME280;58380;48.312;9.246;2023-04-05T06:51:12;93756.91;;;-2.18;79.79
71057;BME280;58380;48.312;9.246;2023-04-05T06:53:38;93798.25;;;-1.80;79.56
71057;BME280;58380;48.312;9.246;2023-04-05T06:56:03;93752.75;;;-1.89;78.74
71057;BME280;58380;48.312;9.246;2023-04-05T06:58:29;93768.81;;;-1.64;77.39
71057;BME280;58380;48.312;9.246;2023-04-05T07:00:55;93779.13;;;-1.34;78.05
71057;BME280;58380;48.312;9.246;2023-04-05T07:03:21;93767.38;;;-1.15;76.90
71057;BME280;58380;48.312;9.246;2023-04-05T07:05:57;93790.19;;;-0.89;77.44
71057;BME280;58380;48.312;9.246;2023-04-05T07:08:25;93768.03;;;-0.92;76.04
71057;BME280;58380;48.312;9.246;2023-04-05T07:10:52;93786.88;;;-0.61;75.76
71057;BME280;58380;48.312;9.246;2023-04-05T07:13:19;93772.69;;;-0.44;76.21
71057;BME280;58380;48.312;9.246;2023-04-05T07:15:46;93762.53;;;-0.39;74.66
71057;BME280;58380;48.312;9.246;2023-04-05T07:18:12;93762.78;;;-0.34;72.62
71057;BME280;58380;48.312;9.246;2023-04-05T07:20:40;93788.63;;;0.09;73.23
71057;BME280;58380;48.312;9.246;2023-04-05T07:23:05;93770.69;;;0.08;69.88
71057;BME280;58380;48.312;9.246;2023-04-05T07:25:31;93727.50;;;0.00;70.04
71057;BME280;58380;48.312;9.246;2023-04-05T07:27:57;93767.13;;;0.50;67.25
71057;BME280;58380;48.312;9.246;2023-04-05T07:30:22;93790.81;;;0.75;65.71
71057;BME280;58380;48.312;9.246;2023-04-05T07:32:48;93794.47;;;0.94;64.61
71057;BME280;58380;48.312;9.246;2023-04-05T07:35:13;93730.88;;;0.83;64.72
71057;BME280;58380;48.312;9.246;2023-04-05T07:37:39;93749.16;;;1.10;65.21
71057;BME280;58380;48.312;9.246;2023-04-05T07:40:05;93756.34;;;1.15;62.67
71057;BME280;58380;48.312;9.246;2023-04-05T07:42:31;93790.63;;;1.51;61.22
71057;BME280;58380;48.312;9.246;2023-04-05T07:44:57;93712.97;;;1.08;59.67
71057;BME280;58380;48.312;9.246;2023-04-05T07:47:23;93782.47;;;1.68;63.14
71057;BME280;58380;48.312;9.246;2023-04-05T07:49:48;93782.63;;;1.60;56.85
71057;BME280;58380;48.312;9.246;2023-04-05T07:52:14;93757.84;;;1.50;59.74
71057;BME280;58380;48.312;9.246;2023-04-05T07:54:39;93779.06;;;1.61;57.86
71057;BME280;58380;48.312;9.246;2023-04-05T07:57:07;93772.47;;;1.65;58.05
71057;BME280;58380;48.312;9.246;2023-04-05T07:59:33;93774.06;;;1.66;58.39
71057;BME280;58380;48.312;9.246;2023-04-05T08:01:58;93757.44;;;1.60;56.72
71057;BME280;58380;48.312;9.246;2023-04-05T08:04:24;93765.84;;;1.76;57.80
71057;BME280;58380;48.312;9.246;2023-04-05T08:06:50;93779.28;;;1.92;58.13
71057;BME280;58380;48.312;9.246;2023-04-05T08:09:16;93786.88;;;2.21;58.14
71057;BME280;58380;48.312;9.246;2023-04-05T08:11:41;93794.66;;;2.34;59.12
71057;BME280;58380;48.312;9.246;2023-04-05T08:14:07;93784.25;;;2.27;56.92
71057;BME280;58380;48.312;9.246;2023-04-05T08:16:32;93766.63;;;2.16;54.36
71057;BME280;58380;48.312;9.246;2023-04-05T08:18:58;93796.06;;;2.23;53.72
71057;BME280;58380;48.312;9.246;2023-04-05T08:21:24;93805.47;;;2.24;53.76
71057;BME280;58380;48.312;9.246;2023-04-05T08:23:50;93795.28;;;2.03;53.16
71057;BME280;58380;48.312;9.246;2023-04-05T08:26:16;93744.63;;;1.85;53.27
71057;BME280;58380;48.312;9.246;2023-04-05T08:28:41;93772.84;;;2.15;56.46
71057;BME280;58380;48.312;9.246;2023-04-05T08:31:07;93798.47;;;2.38;56.46
71057;BME280;58380;48.312;9.246;2023-04-05T08:33:32;93798.28;;;2.33;52.84
71057;BME280;58380;48.312;9.246;2023-04-05T08:36:08;93784.81;;;2.49;53.64
71057;BME280;58380;48.312;9.246;2023-04-05T08:38:35;93763.41;;;2.34;52.22
71057;BME280;58380;48.312;9.246;2023-04-05T08:41:17;93688.75;;;2.01;53.02
71057;BME280;58380;48.312;9.246;2023-04-05T08:43:54;93803.59;;;2.78;54.20
71057;BME280;58380;48.312;9.246;2023-04-05T08:46:22;93808.56;;;2.86;50.10
71057;BME280;58380;48.312;9.246;2023-04-05T08:48:48;93747.75;;;2.41;51.67
71057;BME280;58380;48.312;9.246;2023-04-05T08:51:21;93812.84;;;2.67;52.98
71057;BME280;58380;48.312;9.246;2023-04-05T08:53:48;93793.81;;;2.60;52.31
71057;BME280;58380;48.312;9.246;2023-04-05T08:56:14;93805.22;;;2.66;48.19
71057;BME280;58380;48.312;9.246;2023-04-05T08:58:47;93803.22;;;2.61;52.96
71057;BME280;58380;48.312;9.246;2023-04-05T09:01:22;93806.63;;;2.75;55.26
71057;BME280;58380;48.312;9.246;2023-04-05T09:03:49;93700.13;;;2.13;53.58
71057;BME280;58380;48.312;9.246;2023-04-05T09:06:18;93668.91;;;2.07;53.70
71057;BME280;58380;48.312;9.246;2023-04-05T09:08:46;93790.91;;;2.95;51.02
71057;BME280;58380;48.312;9.246;2023-04-05T09:11:13;93794.47;;;3.00;53.73
71057;BME280;58380;48.312;9.246;2023-04-05T09:13:40;93777.09;;;2.81;48.98
71057;BME280;58380;48.312;9.246;2023-04-05T09:16:06;93770.41;;;2.98;53.53
71057;BME280;58380;48.312;9.246;2023-04-05T09:18:32;93773.00;;;3.05;50.62
71057;BME280;58380;48.312;9.246;2023-04-05T09:21:02;93796.03;;;3.15;50.82
71057;BME280;58380;48.312;9.246;2023-04-05T09:23:29;93767.81;;;2.92;51.88
71057;BME280;58380;48.312;9.246;2023-04-05T09:25:55;93778.06;;;2.87;47.67
71057;BME280;58380;48.312;9.246;2023-04-05T09:28:21;93794.38;;;2.75;50.10
71057;BME280;58380;48.312;9.246;2023-04-05T09:30:46;93815.53;;;3.06;53.91
71057;BME280;58380;48.312;9.246;2023-04-05T09:33:17;93808.50;;;3.06;50.57
71057;BME280;58380;48.312;9.246;2023-04-05T09:35:44;93762.25;;;2.88;48.11
71057;BME280;58380;48.312;9.246;2023-04-05T09:38:14;93775.28;;;2.88;47.24
71057;BME280;58380;48.312;9.246;2023-04-05T09:40:44;93818.66;;;3.28;52.09
71057;BME280;58380;48.312;9.246;2023-04-05T09:46:02;93776.50;;;2.79;46.29
71057;BME280;58380;48.312;9.246;2023-04-05T09:48:50;93794.72;;;2.92;51.21
71057;BME280;58380;48.312;9.246;2023-04-05T09:51:16;93794.25;;;3.02;51.84
71057;BME280;58380;48.312;9.246;2023-04-05T09:54:05;93815.03;;;3.29;52.26
71057;BME280;58380;48.312;9.246;2023-04-05T09:56:35;93790.28;;;3.44;49.72
71057;BME280;58380;48.312;9.246;2023-04-05T09:59:06;93780.63;;;3.45;50.50
71057;BME280;58380;48.312;9.246;2023-04-05T10:01:33;93778.84;;;3.39;50.02
71057;BME280;58380;48.312;9.246;2023-04-05T10:03:59;93773.38;;;3.09;43.61
71057;BME280;58380;48.312;9.246;2023-04-05T10:06:37;93810.81;;;3.28;45.91
71057;BME280;58380;48.312;9.246;2023-04-05T10:09:08;93748.66;;;3.18;52.21
71057;BME280;58380;48.312;9.246;2023-04-05T10:11:36;93780.56;;;3.52;45.19
71057;BME280;58380;48.312;9.246;2023-04-05T10:14:07;93770.28;;;3.57;47.54
71057;BME280;58380;48.312;9.246;2023-04-05T10:16:37;93768.50;;;3.57;46.38
71057;BME280;58380;48.312;9.246;2023-04-05T10:19:26;93782.53;;;3.63;51.27
71057;BME280;58380;48.312;9.246;2023-04-05T10:22:01;93801.72;;;3.75;45.72
71057;BME280;58380;48.312;9.246;2023-04-05T10:24:33;93789.13;;;3.65;45.56
71057;BME280;58380;48.312;9.246;2023-04-05T10:27:25;93787.28;;;3.73;49.70
71057;BME280;58380;48.312;9.246;2023-04-05T10:30:07;93797.00;;;3.91;47.49
71057;BME280;58380;48.312;9.246;2023-04-05T10:33:05;93788.09;;;3.98;48.36
71057;BME280;58380;48.312;9.246;2023-04-05T10:39:11;93789.00;;;4.10;48.18
71057;BME280;58380;48.312;9.246;2023-04-05T10:41:48;93779.00;;;4.07;50.84
71057;BME280;58380;48.312;9.246;2023-04-05T10:44:18;93773.50;;;3.91;44.75
71057;BME280;58380;48.312;9.246;2023-04-05T10:46:44;93764.22;;;3.70;47.23
71057;BME280;58380;48.312;9.246;2023-04-05T10:49:27;93773.06;;;3.62;46.51
71057;BME280;58380;48.312;9.246;2023-04-05T10:52:10;93763.81;;;3.66;50.69
71057;BME280;58380;48.312;9.246;2023-04-05T10:54:36;93790.75;;;3.92;50.18
71057;BME280;58380;48.312;9.246;2023-04-05T10:57:04;93789.69;;;3.99;48.28
71057;BME280;58380;48.312;9.246;2023-04-05T10:59:31;93710.13;;;3.20;47.14
71057;BME280;58380;48.312;9.246;2023-04-05T11:01:58;93790.88;;;3.72;47.20
71057;BME280;58380;48.312;9.246;2023-04-05T11:04:25;93792.69;;;3.71;45.45
71057;BME280;58380;48.312;9.246;2023-04-05T11:07:15;93781.31;;;3.65;43.64
71057;BME280;58380;48.312;9.246;2023-04-05T11:09:55;93768.84;;;3.67;44.45
71057;BME280;58380;48.312;9.246;2023-04-05T11:20:52;93774.97;;;4.30;48.46
71057;BME280;58380;48.312;9.246;2023-04-05T11:23:29;93763.19;;;4.21;44.66
71057;BME280;58380;48.312;9.246;2023-04-05T11:26:05;93754.13;;;4.23;44.63
71057;BME280;58380;48.312;9.246;2023-04-05T11:28:38;93769.19;;;4.46;45.97
71057;BME280;58380;48.312;9.246;2023-04-05T11:31:12;93692.72;;;4.14;42.88
71057;BME280;58380;48.312;9.246;2023-04-05T11:36:06;93740.06;;;4.43;48.61
71057;BME280;58380;48.312;9.246;2023-04-05T11:38:34;93694.31;;;4.15;48.28
71057;BME280;58380;48.312;9.246;2023-04-05T11:41:14;93717.34;;;4.25;43.21
71057;BME280;58380;48.312;9.246;2023-04-05T11:43:49;93744.13;;;4.39;41.38
71057;BME280;58380;48.312;9.246;2023-04-05T11:46:17;93747.91;;;4.24;40.87
71057;BME280;58380;48.312;9.246;2023-04-05T11:48:48;93705.00;;;3.88;40.40
71057;BME280;58380;48.312;9.246;2023-04-05T11:51:15;93737.28;;;4.19;40.69
71057;BME280;58380;48.312;9.246;2023-04-05T11:53:45;93745.44;;;4.29;42.27
71057;BME280;58380;48.312;9.246;2023-04-05T11:56:11;93735.94;;;4.35;43.67
71057;BME280;58380;48.312;9.246;2023-04-05T11:58:40;93738.53;;;4.53;44.75
71057;BME280;58380;48.312;9.246;2023-04-05T12:01:07;93730.94;;;4.52;48.71
71057;BME280;58380;48.312;9.246;2023-04-05T12:03:34;93682.84;;;4.53;43.26
71057;BME280;58380;48.312;9.246;2023-04-05T12:06:03;93734.78;;;5.16;44.96
71057;BME280;58380;48.312;9.246;2023-04-05T12:08:41;93714.22;;;5.20;45.81
71057;BME280;58380;48.312;9.246;2023-04-05T12:11:09;93718.91;;;5.30;47.03
71057;BME280;58380;48.312;9.246;2023-04-05T12:13:37;93694.34;;;5.01;45.19
71057;BME280;58380;48.312;9.246;2023-04-05T12:16:04;93718.06;;;5.17;42.33
71057;BME280;58380;48.312;9.246;2023-04-05T12:18:33;93694.25;;;5.07;42.66
71057;BME280;58380;48.312;9.246;2023-04-05T12:21:02;93725.28;;;5.34;45.49
71057;BME280;58380;48.312;9.246;2023-04-05T12:23:30;93685.19;;;5.22;43.94
71057;BME280;58380;48.312;9.246;2023-04-05T12:25:56;93714.94;;;4.97;44.13
71057;BME280;58380;48.312;9.246;2023-04-05T12:28:22;93694.38;;;4.64;44.59
71057;BME280;58380;48.312;9.246;2023-04-05T12:30:49;93691.00;;;4.45;44.21
71057;BME280;58380;48.312;9.246;2023-04-05T12:33:14;93713.34;;;4.78;46.81
71057;BME280;58380;48.312;9.246;2023-04-05T12:35:50;93690.22;;;4.93;48.45
71057;BME280;58380;48.312;9.246;2023-04-05T12:38:15;93706.75;;;5.05;45.41
71057;BME280;58380;48.312;9.246;2023-04-05T12:40:42;93715.91;;;5.14;45.04
71057;BME280;58380;48.312;9.246;2023-04-05T12:43:08;93683.41;;;5.22;44.71
71057;BME280;58380;48.312;9.246;2023-04-05T12:45:34;93699.31;;;5.62;44.16
71057;BME280;58380;48.312;9.246;2023-04-05T12:48:09;93708.41;;;5.60;44.68
71057;BME280;58380;48.312;9.246;2023-04-05T12:50:42;93701.44;;;5.42;45.87
71057;BME280;58380;48.312;9.246;2023-04-05T12:53:18;93691.38;;;5.39;41.79
71057;BME280;58380;48.312;9.246;2023-04-05T12:55:52;93702.59;;;5.16;40.80
71057;BME280;58380;48.312;9.246;2023-04-05T12:58:32;93704.59;;;5.44;40.83
71057;BME280;58380;48.312;9.246;2023-04-05T13:00:59;93691.47;;;5.62;41.02
71057;BME280;58380;48.312;9.246;2023-04-05T13:03:25;93653.00;;;5.75;39.63
71057;BME280;58380;48.312;9.246;2023-04-05T13:05:52;93673.50;;;6.13;39.76
71057;BME280;58380;48.312;9.246;2023-04-05T13:08:20;93667.69;;;6.23;38.80
71057;BME280;58380;48.312;9.246;2023-04-05T13:10:48;93691.97;;;6.30;37.78
71057;BME280;58380;48.312;9.246;2023-04-05T13:13:15;93676.03;;;6.20;37.81
71057;BME280;58380;48.312;9.246;2023-04-05T13:15:43;93628.53;;;6.04;37.89
71057;BME280;58380;48.312;9.246;2023-04-05T13:18:10;93690.72;;;6.33;37.03
71057;BME280;58380;48.312;9.246;2023-04-05T13:20:38;93688.88;;;6.45;37.52
71057;BME280;58380;48.312;9.246;2023-04-05T13:23:04;93667.44;;;6.36;37.83
71057;BME280;58380;48.312;9.246;2023-04-05T13:25:41;93648.31;;;6.36;38.09
71057;BME280;58380;48.312;9.246;2023-04-05T13:28:09;93676.72;;;6.79;37.18
71057;BME280;58380;48.312;9.246;2023-04-05T13:30:35;93676.16;;;6.77;36.01
71057;BME280;58380;48.312;9.246;2023-04-05T13:33:01;93663.72;;;6.73;37.64
71057;BME280;58380;48.312;9.246;2023-04-05T13:35:28;93652.66;;;6.82;37.51
71057;BME280;58380;48.312;9.246;2023-04-05T13:37:54;93607.91;;;6.48;41.43
71057;BME280;58380;48.312;9.246;2023-04-05T13:40:19;93637.88;;;6.93;39.70
71057;BME280;58380;48.312;9.246;2023-04-05T13:42:45;93656.88;;;7.12;40.14
71057;BME280;58380;48.312;9.246;2023-04-05T13:45:10;93651.41;;;7.30;37.72
71057;BME280;58380;48.312;9.246;2023-04-05T13:47:36;93630.97;;;7.49;40.00
71057;BME280;58380;48.312;9.246;2023-04-05T13:50:02;93637.00;;;7.84;42.74
71057;BME280;58380;48.312;9.246;2023-04-05T13:52:28;93642.25;;;7.84;38.44
71057;BME280;58380;48.312;9.246;2023-04-05T13:54:54;93640.50;;;7.39;40.87
71057;BME280;58380;48.312;9.246;2023-04-05T13:57:19;93620.38;;;7.27;36.72
71057;BME280;58380;48.312;9.246;2023-04-05T13:59:44;93612.63;;;7.21;40.66
71057;BME280;58380;48.312;9.246;2023-04-05T14:02:11;93641.16;;;7.29;40.84
71057;BME280;58380;48.312;9.246;2023-04-05T14:04:39;93643.81;;;6.88;38.77
71057;BME280;58380;48.312;9.246;2023-04-05T14:07:06;93627.66;;;6.80;41.68
71057;BME280;58380;48.312;9.246;2023-04-05T14:09:32;93626.78;;;6.74;42.07
71057;BME280;58380;48.312;9.246;2023-04-05T14:11:59;93633.72;;;6.80;38.90
71057;BME280;58380;48.312;9.246;2023-04-05T14:14:28;93606.03;;;6.73;39.93
71057;BME280;58380;48.312;9.246;2023-04-05T14:16:54;93628.75;;;6.96;41.77
71057;BME280;58380;48.312;9.246;2023-04-05T14:19:20;93602.41;;;6.90;40.13
71057;BME280;58380;48.312;9.246;2023-04-05T14:21:45;93609.94;;;7.16;42.40
71057;BME280;58380;48.312;9.246;2023-04-05T14:24:11;93602.47;;;7.41;40.65
71057;BME280;58380;48.312;9.246;2023-04-05T14:26:37;93634.25;;;7.56;37.71
71057;BME280;58380;48.312;9.246;2023-04-05T14:29:03;93631.38;;;7.75;38.94
71057;BME280;58380;48.312;9.246;2023-04-05T14:31:29;93618.84;;;7.99;39.05
71057;BME280;58380;48.312;9.246;2023-04-05T14:33:54;93623.78;;;7.78;40.44
71057;BME280;58380;48.312;9.246;2023-04-05T14:36:20;93583.78;;;7.54;37.89
71057;BME280;58380;48.312;9.246;2023-04-05T14:38:45;93626.34;;;7.73;41.34
71057;BME280;58380;48.312;9.246;2023-04-05T14:41:11;93624.13;;;7.48;39.55
71057;BME280;58380;48.312;9.246;2023-04-05T14:43:37;93625.47;;;7.85;39.45
71057;BME280;58380;48.312;9.246;2023-04-05T14:46:02;93611.69;;;7.61;40.28
71057;BME280;58380;48.312;9.246;2023-04-05T14:48:28;93611.38;;;7.40;38.41
71057;BME280;58380;48.312;9.246;2023-04-05T14:50:56;93600.38;;;7.09;38.93
71057;BME280;58380;48.312;9.246;2023-04-05T14:53:22;93602.00;;;6.82;36.58
71057;BME280;58380;48.312;9.246;2023-04-05T14:55:48;93578.53;;;6.46;37.73
71057;BME280;58380;48.312;9.246;2023-04-05T14:58:14;93602.78;;;6.54;39.84
71057;BME280;58380;48.312;9.246;2023-04-05T15:00:39;93584.28;;;6.20;40.86
71057;BME280;58380;48.312;9.246;2023-04-05T15:03:08;93626.38;;;6.54;38.53
71057;BME280;58380;48.312;9.246;2023-04-05T15:05:40;93594.22;;;6.18;37.95
71057;BME280;58380;48.312;9.246;2023-04-05T15:08:06;93624.22;;;6.51;37.43
71057;BME280;58380;48.312;9.246;2023-04-05T15:10:32;93616.94;;;6.81;39.06
71057;BME280;58380;48.312;9.246;2023-04-05T15:12:58;93625.28;;;7.07;37.64
71057;BME280;58380;48.312;9.246;2023-04-05T15:15:26;93592.53;;;6.81;37.69
71057;BME280;58380;48.312;9.246;2023-04-05T15:17:52;93612.66;;;7.38;38.67
71057;BME280;58380;48.312;9.246;2023-04-05T15:20:20;93620.16;;;7.63;38.13
71057;BME280;58380;48.312;9.246;2023-04-05T15:22:45;93573.03;;;7.22;37.32
71057;BME280;58380;48.312;9.246;2023-04-05T15:25:11;93603.25;;;7.25;38.44
71057;BME280;58380;48.312;9.246;2023-04-05T15:27:36;93613.34;;;7.16;39.82
71057;BME280;58380;48.312;9.246;2023-04-05T15:30:02;93624.63;;;7.00;39.14
71057;BME280;58380;48.312;9.246;2023-04-05T15:32:27;93620.91;;;6.84;39.45
71057;BME280;58380;48.312;9.246;2023-04-05T15:34:57;93580.59;;;6.44;40.57
71057;BME280;58380;48.312;9.246;2023-04-05T15:37:23;93625.22;;;6.61;40.13
71057;BME280;58380;48.312;9.246;2023-04-05T15:39:49;93611.88;;;6.91;40.67
71057;BME280;58380;48.312;9.246;2023-04-05T15:42:18;93619.59;;;6.98;40.59
71057;BME280;58380;48.312;9.246;2023-04-05T15:44:45;93594.13;;;6.82;40.30
71057;BME280;58380;48.312;9.246;2023-04-05T15:47:11;93587.78;;;6.66;40.96
71057;BME280;58380;48.312;9.246;2023-04-05T15:49:37;93567.00;;;6.76;39.58
71057;BME280;58380;48.312;9.246;2023-04-05T15:52:02;93606.91;;;7.24;42.20
71057;BME280;58380;48.312;9.246;2023-04-05T15:54:28;93589.41;;;7.12;40.66
71057;BME280;58380;48.312;9.246;2023-04-05T15:56:53;93592.38;;;7.33;41.21
71057;BME280;58380;48.312;9.246;2023-04-05T15:59:18;93611.22;;;7.81;38.91
71057;BME280;58380;48.312;9.246;2023-04-05T16:01:45;93618.88;;;7.82;41.27
71057;BME280;58380;48.312;9.246;2023-04-05T16:04:10;93606.06;;;7.52;41.47
71057;BME280;58380;48.312;9.246;2023-04-05T16:06:35;93589.91;;;7.60;41.74
71057;BME280;58380;48.312;9.246;2023-04-05T16:09:01;93601.34;;;8.27;39.64
71057;BME280;58380;48.312;9.246;2023-04-05T16:11:26;93618.88;;;8.82;38.75
71057;BME280;58380;48.312;9.246;2023-04-05T16:13:52;93593.03;;;9.06;36.33
71057;BME280;58380;48.312;9.246;2023-04-05T16:16:18;93622.09;;;9.43;38.84
71057;BME280;58380;48.312;9.246;2023-04-05T16:18:43;93608.53;;;9.62;35.61
71057;BME280;58380;48.312;9.246;2023-04-05T16:21:09;93601.63;;;9.93;36.25
71057;BME280;58380;48.312;9.246;2023-04-05T16:23:35;93616.34;;;10.21;33.79
71057;BME280;58380;48.312;9.246;2023-04-05T16:26:01;93613.09;;;9.71;34.70
71057;BME280;58380;48.312;9.246;2023-04-05T16:28:27;93598.16;;;9.82;35.29
71057;BME280;58380;48.312;9.246;2023-04-05T16:30:53;93613.31;;;9.65;37.02
71057;BME280;58380;48.312;9.246;2023-04-05T16:33:19;93600.19;;;9.38;36.71
71057;BME280;58380;48.312;9.246;2023-04-05T16:35:45;93615.63;;;8.75;37.85
71057;BME280;58380;48.312;9.246;2023-04-05T16:38:11;93576.28;;;8.41;37.59
71057;BME280;58380;48.312;9.246;2023-04-05T16:40:36;93583.41;;;8.24;37.93
71057;BME280;58380;48.312;9.246;2023-04-05T16:43:02;93615.50;;;8.26;37.19
71057;BME280;58380;48.312;9.246;2023-04-05T16:45:27;93597.44;;;7.90;38.92
71057;BME280;58380;48.312;9.246;2023-04-05T16:47:54;93590.13;;;7.75;36.54
71057;BME280;58380;48.312;9.246;2023-04-05T16:50:20;93603.25;;;7.75;39.03
71057;BME280;58380;48.312;9.246;2023-04-05T16:52:45;93602.81;;;7.62;38.49
71057;BME280;58380;48.312;9.246;2023-04-05T16:55:11;93626.19;;;7.63;40.13
71057;BME280;58380;48.312;9.246;2023-04-05T16:57:36;93601.59;;;7.35;38.73
71057;BME280;58380;48.312;9.246;2023-04-05T17:00:03;93618.00;;;7.43;39.49
71057;BME280;58380;48.312;9.246;2023-04-05T17:02:29;93614.00;;;7.23;40.63
71057;BME280;58380;48.312;9.246;2023-04-05T17:04:55;93603.28;;;6.96;41.68
71057;BME280;58380;48.312;9.246;2023-04-05T17:07:20;93544.88;;;6.43;42.49
71057;BME280;58380;48.312;9.246;2023-04-05T17:09:46;93579.16;;;6.54;41.14
71057;BME280;58380;48.312;9.246;2023-04-05T17:12:11;93593.78;;;6.50;40.21
71057;BME280;58380;48.312;9.246;2023-04-05T17:14:36;93619.31;;;6.54;41.44
71057;BME280;58380;48.312;9.246;2023-04-05T17:17:02;93591.78;;;6.28;42.79
71057;BME280;58380;48.312;9.246;2023-04-05T17:19:28;93615.59;;;6.38;42.53
71057;BME280;58380;48.312;9.246;2023-04-05T17:21:53;93613.78;;;6.27;41.77
71057;BME280;58380;48.312;9.246;2023-04-05T17:24:18;93640.22;;;6.37;43.36
71057;BME280;58380;48.312;9.246;2023-04-05T17:26:44;93622.47;;;6.16;42.38
71057;BME280;58380;48.312;9.246;2023-04-05T17:29:10;93636.81;;;6.01;43.78
71057;BME280;58380;48.312;9.246;2023-04-05T17:31:36;93618.47;;;5.66;42.94
71057;BME280;58380;48.312;9.246;2023-04-05T17:34:02;93628.03;;;5.60;43.43
71057;BME280;58380;48.312;9.246;2023-04-05T17:36:29;93621.19;;;5.48;44.79
71057;BME280;58380;48.312;9.246;2023-04-05T17:38:54;93622.78;;;5.37;45.44
71057;BME280;58380;48.312;9.246;2023-04-05T17:41:20;93637.41;;;5.26;45.65
71057;BME280;58380;48.312;9.246;2023-04-05T17:43:46;93652.97;;;5.09;45.53
71057;BME280;58380;48.312;9.246;2023-04-05T17:46:11;93650.84;;;4.88;47.41
71057;BME280;58380;48.312;9.246;2023-04-05T17:48:39;93648.84;;;4.71;47.87
71057;BME280;58380;48.312;9.246;2023-04-05T17:51:06;93604.81;;;4.38;47.44
71057;BME280;58380;48.312;9.246;2023-04-05T17:53:32;93589.09;;;4.08;46.67
71057;BME280;58380;48.312;9.246;2023-04-05T17:55:57;93662.84;;;4.47;46.84
71057;BME280;58380;48.312;9.246;2023-04-05T17:58:23;93645.47;;;4.34;49.38
71057;BME280;58380;48.312;9.246;2023-04-05T18:00:49;93647.16;;;4.28;48.63
71057;BME280;58380;48.312;9.246;2023-04-05T18:03:16;93677.66;;;4.35;47.80
71057;BME280;58380;48.312;9.246;2023-04-05T18:05:42;93664.78;;;4.33;48.79
71057;BME280;58380;48.312;9.246;2023-04-05T18:08:07;93660.44;;;4.27;49.00
71057;BME280;58380;48.312;9.246;2023-04-05T18:10:33;93663.84;;;4.27;49.05
71057;BME280;58380;48.312;9.246;2023-04-05T18:12:58;93639.75;;;4.07;48.74
71057;BME280;58380;48.312;9.246;2023-04-05T18:15:24;93629.13;;;3.83;48.20
71057;BME280;58380;48.312;9.246;2023-04-05T18:17:49;93672.41;;;4.16;48.82
71057;BME280;58380;48.312;9.246;2023-04-05T18:20:14;93667.81;;;4.11;48.76
71057;BME280;58380;48.312;9.246;2023-04-05T18:22:40;93644.19;;;3.81;48.77
71057;BME280;58380;48.312;9.246;2023-04-05T18:25:06;93687.28;;;4.16;48.16
71057;BME280;58380;48.312;9.246;2023-04-05T18:27:35;93644.28;;;3.75;49.01
71057;BME280;58380;48.312;9.246;2023-04-05T18:30:00;93683.41;;;4.00;48.64
71057;BME280;58380;48.312;9.246;2023-04-05T18:32:26;93634.34;;;3.65;49.01
71057;BME280;58380;48.312;9.246;2023-04-05T18:34:51;93679.69;;;3.89;50.24
71057;BME280;58380;48.312;9.246;2023-04-05T18:37:17;93690.72;;;3.91;51.49
71057;BME280;58380;48.312;9.246;2023-04-05T18:39:42;93688.88;;;3.73;49.94
71057;BME280;58380;48.312;9.246;2023-04-05T18:42:08;93703.25;;;3.82;50.28
71057;BME280;58380;48.312;9.246;2023-04-05T18:44:33;93667.78;;;3.50;50.13
71057;BME280;58380;48.312;9.246;2023-04-05T18:46:59;93713.03;;;3.62;50.68